createdAt,value
2023-12-28T00:00:46.634Z,3
2023-12-28T00:01:46.593Z,5
2023-12-28T00:02:46.520Z,5
2023-12-28T00:03:46.577Z,5
2023-12-28T00:04:46.520Z,4
2023-12-28T00:05:46.536Z,3
2023-12-28T00:06:46.645Z,5
2023-12-28T00:07:46.533Z,4
2023-12-28T00:09:46.560Z,4
2023-12-28T00:11:46.523Z,3
2023-12-28T00:12:46.565Z,4
2023-12-28T00:13:46.522Z,6
2023-12-28T00:14:46.530Z,5
2023-12-28T00:15:46.579Z,5
2023-12-28T00:16:46.534Z,3
2023-12-28T00:18:46.616Z,5
2023-12-28T00:19:46.609Z,5
2023-12-28T00:21:46.676Z,5
2023-12-28T00:22:46.512Z,4
2023-12-28T00:23:46.522Z,3
2023-12-28T00:24:46.613Z,3
2023-12-28T00:25:46.546Z,6
2023-12-28T00:27:46.570Z,3
2023-12-28T00:28:46.526Z,3
2023-12-28T00:29:46.533Z,6
2023-12-28T00:30:46.666Z,2
2023-12-28T00:32:46.548Z,3
2023-12-28T00:33:46.555Z,5
2023-12-28T00:34:46.582Z,3
2023-12-28T00:35:46.519Z,5
2023-12-28T00:36:46.565Z,4
2023-12-28T00:37:46.524Z,4
2023-12-28T00:39:46.540Z,7
2023-12-28T00:40:46.541Z,4
2023-12-28T00:41:46.534Z,4
2023-12-28T00:42:46.597Z,3
2023-12-28T00:43:46.592Z,4
2023-12-28T00:44:46.536Z,3
2023-12-28T00:46:46.543Z,7
2023-12-28T00:47:46.597Z,3
2023-12-28T00:49:46.749Z,3
2023-12-28T00:50:46.529Z,2
2023-12-28T00:51:46.543Z,5
2023-12-28T00:52:46.527Z,5
2023-12-28T00:53:46.526Z,3
2023-12-28T00:54:46.577Z,4
2023-12-28T00:55:46.533Z,4
2023-12-28T00:56:46.530Z,3
2023-12-28T00:57:46.597Z,2
2023-12-28T00:58:46.544Z,3
2023-12-28T01:00:46.673Z,3
2023-12-28T01:01:46.555Z,3
2023-12-28T01:02:46.540Z,3
2023-12-28T01:03:46.582Z,5
2023-12-28T01:04:47.103Z,4
2023-12-28T01:06:46.569Z,3
2023-12-28T01:07:46.554Z,2
2023-12-28T01:08:46.530Z,2
2023-12-28T01:09:46.589Z,3
2023-12-28T01:10:46.631Z,3
2023-12-28T01:11:46.529Z,3
2023-12-28T01:12:46.614Z,3
2023-12-28T01:15:46.573Z,3
2023-12-28T01:16:46.530Z,2
2023-12-28T01:17:46.637Z,4
2023-12-28T01:18:46.619Z,2
2023-12-28T01:19:46.665Z,5
2023-12-28T01:20:46.525Z,3
2023-12-28T01:21:46.613Z,4
2023-12-28T01:22:46.533Z,4
2023-12-28T01:23:46.531Z,2
2023-12-28T01:24:46.565Z,3
2023-12-28T01:25:46.563Z,3
2023-12-28T01:26:46.540Z,2
2023-12-28T01:28:46.542Z,3
2023-12-28T01:29:46.537Z,3
2023-12-28T01:30:46.633Z,5
2023-12-28T01:31:46.608Z,3
2023-12-28T01:32:46.555Z,5
2023-12-28T01:33:46.606Z,4
2023-12-28T01:34:46.581Z,3
2023-12-28T01:35:46.595Z,2
2023-12-28T01:37:46.544Z,2
2023-12-28T01:38:46.538Z,3
2023-12-28T01:39:46.619Z,3
2023-12-28T01:40:46.534Z,2
2023-12-28T01:41:46.540Z,4
2023-12-28T01:42:46.622Z,3
2023-12-28T01:43:46.548Z,5
2023-12-28T01:46:46.543Z,2
2023-12-28T01:47:46.593Z,3
2023-12-28T01:48:46.768Z,4
2023-12-28T01:49:46.775Z,4
2023-12-28T01:51:46.582Z,2
2023-12-28T01:52:46.550Z,2
2023-12-28T01:53:46.596Z,3
2023-12-28T01:56:46.547Z,3
2023-12-28T01:57:46.688Z,3
2023-12-28T01:59:46.555Z,3
2023-12-28T02:00:46.609Z,3
2023-12-28T02:01:46.599Z,3
2023-12-28T02:02:46.538Z,5
2023-12-28T02:03:46.653Z,3
2023-12-28T02:04:46.612Z,4
2023-12-28T02:05:46.601Z,3
2023-12-28T02:06:46.616Z,3
2023-12-28T02:07:46.542Z,3
2023-12-28T02:09:46.572Z,3
2023-12-28T02:10:46.545Z,4
2023-12-28T02:11:46.583Z,4
2023-12-28T02:12:46.578Z,3
2023-12-28T02:13:46.541Z,5
2023-12-28T02:14:46.544Z,3
2023-12-28T02:16:46.540Z,3
2023-12-28T02:17:46.585Z,2
2023-12-28T02:18:46.566Z,4
2023-12-28T02:19:46.542Z,4
2023-12-28T02:20:46.536Z,2
2023-12-28T02:21:46.645Z,3
2023-12-28T02:22:46.555Z,3
2023-12-28T02:23:46.551Z,5
2023-12-28T02:24:46.590Z,5
2023-12-28T02:25:46.541Z,5
2023-12-28T02:26:46.558Z,3
2023-12-28T02:27:46.574Z,5
2023-12-28T02:28:46.544Z,5
2023-12-28T02:30:46.590Z,3
2023-12-28T02:32:46.987Z,3
2023-12-28T02:34:46.581Z,4
2023-12-28T02:35:46.550Z,5
2023-12-28T02:37:46.563Z,3
2023-12-28T02:38:46.595Z,3
2023-12-28T02:39:46.568Z,3
2023-12-28T02:40:46.556Z,5
2023-12-28T02:41:46.560Z,3
2023-12-28T02:42:46.581Z,5
2023-12-28T02:43:46.542Z,3
2023-12-28T02:44:46.551Z,4
2023-12-28T02:45:46.630Z,4
2023-12-28T02:46:46.551Z,4
2023-12-28T02:47:46.599Z,4
2023-12-28T02:49:46.718Z,4
2023-12-28T02:50:46.552Z,4
2023-12-28T02:51:46.619Z,3
2023-12-28T02:52:46.546Z,5
2023-12-28T02:53:47.914Z,5
2023-12-28T02:54:46.581Z,2
2023-12-28T02:55:46.554Z,3
2023-12-28T02:56:46.541Z,4
2023-12-28T02:57:46.629Z,4
2023-12-28T02:59:46.556Z,3
2023-12-28T03:00:46.674Z,4
2023-12-28T03:01:46.610Z,4
2023-12-28T03:02:46.629Z,4
2023-12-28T03:03:46.607Z,4
2023-12-28T03:04:46.569Z,4
2023-12-28T03:05:46.584Z,3
2023-12-28T03:07:46.551Z,4
2023-12-28T03:08:46.548Z,4
2023-12-28T03:09:46.564Z,3
2023-12-28T03:10:46.542Z,3
2023-12-28T03:11:46.565Z,4
2023-12-28T03:12:46.622Z,4
2023-12-28T03:14:46.557Z,4
2023-12-28T03:15:46.577Z,4
2023-12-28T03:17:46.748Z,2
2023-12-28T03:18:46.713Z,5
2023-12-28T03:19:46.700Z,2
2023-12-28T03:20:46.552Z,4
2023-12-28T03:21:46.579Z,4
2023-12-28T03:22:46.551Z,5
2023-12-28T03:23:46.557Z,5
2023-12-28T03:25:46.556Z,4
2023-12-28T03:26:46.576Z,5
2023-12-28T03:28:46.551Z,6
2023-12-28T03:29:46.546Z,2
2023-12-28T03:30:46.618Z,3
2023-12-28T03:32:46.613Z,5
2023-12-28T03:34:47.416Z,5
2023-12-28T03:35:46.548Z,3
2023-12-28T03:36:46.566Z,3
2023-12-28T03:37:46.545Z,4
2023-12-28T03:39:46.590Z,6
2023-12-28T03:40:46.553Z,4
2023-12-28T03:41:46.555Z,4
2023-12-28T03:43:46.545Z,4
2023-12-28T03:44:46.550Z,4
2023-12-28T03:45:46.591Z,6
2023-12-28T03:46:46.590Z,3
2023-12-28T03:47:46.612Z,4
2023-12-28T03:48:46.671Z,4
2023-12-28T03:49:46.654Z,7
2023-12-28T03:50:46.563Z,4
2023-12-28T03:51:46.592Z,3
2023-12-28T03:52:46.630Z,4
2023-12-28T03:53:46.946Z,4
2023-12-28T03:55:46.558Z,4
2023-12-28T03:56:46.563Z,2
2023-12-28T03:58:46.548Z,5
2023-12-28T04:00:47.149Z,4
2023-12-28T04:01:46.637Z,4
2023-12-28T04:02:47.455Z,4
2023-12-28T04:03:46.622Z,5
2023-12-28T04:04:46.569Z,4
2023-12-28T04:05:46.621Z,4
2023-12-28T04:06:46.665Z,4
2023-12-28T04:08:46.563Z,3
2023-12-28T04:09:46.582Z,4
2023-12-28T04:10:46.552Z,6
2023-12-28T04:11:46.567Z,4
2023-12-28T04:12:46.591Z,4
2023-12-28T04:13:46.571Z,5
2023-12-28T04:14:46.558Z,5
2023-12-28T04:15:46.601Z,9
2023-12-28T04:16:46.564Z,9
2023-12-28T04:17:46.609Z,4
2023-12-28T04:18:46.730Z,4
2023-12-28T04:19:46.656Z,5
2023-12-28T04:20:46.576Z,5
2023-12-28T04:21:46.648Z,4
2023-12-28T04:22:46.555Z,4
2023-12-28T04:23:46.558Z,3
2023-12-28T04:24:46.609Z,3
2023-12-28T04:25:46.567Z,3
2023-12-28T04:27:46.603Z,5
2023-12-28T04:28:46.563Z,5
2023-12-28T04:29:46.581Z,9
2023-12-28T04:30:46.627Z,4
2023-12-28T04:31:46.611Z,4
2023-12-28T04:32:46.627Z,5
2023-12-28T04:33:46.617Z,5
2023-12-28T04:34:46.617Z,4
2023-12-28T04:36:47.000Z,6
2023-12-28T04:37:46.556Z,4
2023-12-28T04:38:46.566Z,4
2023-12-28T04:39:46.628Z,4
2023-12-28T04:40:46.551Z,4
2023-12-28T04:41:46.561Z,4
2023-12-28T04:42:46.617Z,4
2023-12-28T04:43:46.550Z,3
2023-12-28T04:44:46.558Z,7
2023-12-28T04:45:46.633Z,5
2023-12-28T04:47:46.611Z,7
2023-12-28T04:48:46.698Z,4
2023-12-28T04:49:46.706Z,3
2023-12-28T04:52:46.568Z,7
2023-12-28T04:53:46.571Z,3
2023-12-28T04:54:46.613Z,3
2023-12-28T04:55:46.559Z,3
2023-12-28T04:56:46.606Z,5
2023-12-28T04:57:46.617Z,5
2023-12-28T04:59:46.556Z,5
2023-12-28T05:00:46.668Z,3
2023-12-28T05:01:46.603Z,3
2023-12-28T05:02:46.565Z,3
2023-12-28T05:03:46.637Z,3
2023-12-28T05:04:46.847Z,6
2023-12-28T05:05:46.618Z,6
2023-12-28T05:06:46.696Z,4
2023-12-28T05:07:46.608Z,7
2023-12-28T05:08:46.562Z,4
2023-12-28T05:09:46.574Z,4
2023-12-28T05:11:46.568Z,5
2023-12-28T05:12:46.634Z,3
2023-12-28T05:14:46.566Z,3
2023-12-28T05:16:46.625Z,5
2023-12-28T05:17:46.636Z,4
2023-12-28T05:18:46.717Z,4
2023-12-28T05:19:46.654Z,4
2023-12-28T05:20:47.355Z,4
2023-12-28T05:22:46.565Z,2
2023-12-28T05:23:46.574Z,4
2023-12-28T05:24:46.622Z,4
2023-12-28T05:25:46.563Z,5
2023-12-28T05:26:46.565Z,4
2023-12-28T05:27:46.628Z,3
2023-12-28T05:29:46.567Z,4
2023-12-28T05:30:46.618Z,4
2023-12-28T05:31:46.607Z,3
2023-12-28T05:32:46.586Z,4
2023-12-28T05:33:46.632Z,6
2023-12-28T05:34:46.617Z,4
2023-12-28T05:35:46.574Z,4
2023-12-28T05:36:46.890Z,4
2023-12-28T05:37:46.573Z,3
2023-12-28T05:38:46.576Z,6
2023-12-28T05:39:46.590Z,6
2023-12-28T05:40:46.573Z,4
2023-12-28T05:41:46.570Z,4
2023-12-28T05:42:46.594Z,4
2023-12-28T05:43:46.563Z,5
2023-12-28T05:44:46.569Z,7
2023-12-28T05:45:46.599Z,7
2023-12-28T05:46:46.591Z,3
2023-12-28T05:47:46.610Z,5
2023-12-28T05:48:46.784Z,7
2023-12-28T05:49:46.670Z,7
2023-12-28T05:50:46.581Z,5
2023-12-28T05:51:46.616Z,4
2023-12-28T05:52:46.605Z,3
2023-12-28T05:53:46.578Z,5
2023-12-28T05:54:46.587Z,5
2023-12-28T05:56:46.569Z,7
2023-12-28T05:57:46.641Z,7
2023-12-28T05:58:46.570Z,6
2023-12-28T05:59:46.579Z,3
2023-12-28T06:00:46.635Z,5
2023-12-28T06:01:46.634Z,4
2023-12-28T06:02:46.581Z,5
2023-12-28T06:03:46.722Z,4
2023-12-28T06:04:46.704Z,4
2023-12-28T06:05:46.625Z,5
2023-12-28T06:06:46.620Z,7
2023-12-28T06:07:46.572Z,5
2023-12-28T06:08:46.601Z,6
2023-12-28T06:09:46.614Z,6
2023-12-28T06:10:46.577Z,6
2023-12-28T06:12:46.644Z,5
2023-12-28T06:14:46.575Z,3
2023-12-28T06:15:46.669Z,4
2023-12-28T06:17:46.613Z,4
2023-12-28T06:18:46.840Z,6
2023-12-28T06:19:46.728Z,6
2023-12-28T06:20:46.588Z,6
2023-12-28T06:21:48.069Z,5
2023-12-28T06:22:46.572Z,6
2023-12-28T06:23:46.594Z,4
2023-12-28T06:24:46.610Z,4
2023-12-28T06:25:46.604Z,8
2023-12-28T06:27:46.654Z,4
2023-12-28T06:28:46.575Z,4
2023-12-28T06:29:46.580Z,7
2023-12-28T06:30:46.653Z,5
2023-12-28T06:31:46.670Z,9
2023-12-28T06:32:46.670Z,9
2023-12-28T06:33:46.739Z,5
2023-12-28T06:35:47.363Z,5
2023-12-28T06:36:46.640Z,4
2023-12-28T06:37:46.585Z,7
2023-12-28T06:39:46.665Z,5
2023-12-28T06:40:46.595Z,6
2023-12-28T06:41:46.585Z,6
2023-12-28T06:42:46.617Z,7
2023-12-28T06:43:46.589Z,7
2023-12-28T06:44:46.574Z,5
2023-12-28T06:46:46.588Z,6
2023-12-28T06:47:46.620Z,6
2023-12-28T06:48:46.727Z,7
2023-12-28T06:49:46.639Z,7
2023-12-28T06:51:46.665Z,9
2023-12-28T06:52:46.570Z,9
2023-12-28T06:53:46.593Z,6
2023-12-28T06:55:46.574Z,5
2023-12-28T06:56:46.595Z,8
2023-12-28T06:57:46.661Z,8
2023-12-28T06:58:46.589Z,5
2023-12-28T06:59:46.582Z,4
2023-12-28T07:01:46.636Z,6
2023-12-28T07:02:46.603Z,6
2023-12-28T07:04:46.595Z,5
2023-12-28T07:05:46.587Z,7
2023-12-28T07:06:46.641Z,6
2023-12-28T07:07:46.574Z,6
2023-12-28T07:08:46.582Z,5
2023-12-28T07:09:46.616Z,4
2023-12-28T07:10:46.576Z,7
2023-12-28T07:11:46.659Z,10
2023-12-28T07:12:46.628Z,10
2023-12-28T07:13:46.566Z,8
2023-12-28T07:14:46.580Z,7
2023-12-28T07:15:46.645Z,7
2023-12-28T07:16:46.599Z,7
2023-12-28T07:18:46.711Z,4
2023-12-28T07:19:46.851Z,7
2023-12-28T07:20:46.574Z,8
2023-12-28T07:22:46.586Z,7
2023-12-28T07:23:46.580Z,9
2023-12-28T07:24:46.587Z,8
2023-12-28T07:26:46.587Z,4
2023-12-28T07:27:46.634Z,6
2023-12-28T07:28:46.586Z,8
2023-12-28T07:30:46.728Z,7
2023-12-28T07:31:46.578Z,7
2023-12-28T07:32:46.647Z,7
2023-12-28T07:33:46.655Z,6
2023-12-28T07:34:46.624Z,6
2023-12-28T07:35:46.572Z,6
2023-12-28T07:36:46.661Z,8
2023-12-28T07:37:46.603Z,7
2023-12-28T07:38:46.592Z,5
2023-12-28T07:39:46.603Z,8
2023-12-28T07:40:46.581Z,8
2023-12-28T07:41:46.584Z,8
2023-12-28T07:42:46.895Z,8
2023-12-28T07:43:46.606Z,7
2023-12-28T07:45:46.650Z,8
2023-12-28T07:47:46.692Z,7
2023-12-28T07:49:46.685Z,10
2023-12-28T07:50:46.587Z,5
2023-12-28T07:51:46.599Z,5
2023-12-28T07:52:46.574Z,6
2023-12-28T07:53:46.578Z,8
2023-12-28T07:54:46.672Z,7
2023-12-28T07:55:46.580Z,7
2023-12-28T07:56:46.581Z,8
2023-12-28T07:57:46.745Z,6
2023-12-28T07:59:46.576Z,9
2023-12-28T08:00:46.659Z,9
2023-12-28T08:01:46.670Z,9
2023-12-28T08:02:46.574Z,9
2023-12-28T08:04:46.617Z,9
2023-12-28T08:05:46.631Z,9
2023-12-28T08:06:46.598Z,17
2023-12-28T08:07:46.605Z,7
2023-12-28T08:09:46.678Z,6
2023-12-28T08:10:46.580Z,6
2023-12-28T08:11:46.580Z,8
2023-12-28T08:13:46.590Z,9
2023-12-28T08:14:46.585Z,9
2023-12-28T08:15:46.604Z,11
2023-12-28T08:16:46.588Z,12
2023-12-28T08:17:46.623Z,6
2023-12-28T08:18:46.811Z,6
2023-12-28T08:19:46.728Z,9
2023-12-28T08:20:46.582Z,6
2023-12-28T08:21:46.634Z,10
2023-12-28T08:22:48.018Z,14
2023-12-28T08:23:46.589Z,10
2023-12-28T08:24:46.632Z,10
2023-12-28T08:25:46.584Z,8
2023-12-28T08:26:46.598Z,11
2023-12-28T08:27:46.638Z,10
2023-12-28T08:29:46.654Z,9
2023-12-28T08:30:46.742Z,9
2023-12-28T08:31:48.462Z,9
2023-12-28T08:32:46.714Z,9
2023-12-28T08:33:46.715Z,9
2023-12-28T08:34:46.668Z,11
2023-12-28T08:35:46.599Z,11
2023-12-28T08:36:46.666Z,8
2023-12-28T08:37:47.255Z,8
2023-12-28T08:38:46.611Z,10
2023-12-28T08:39:46.633Z,10
2023-12-28T08:40:46.600Z,6
2023-12-28T08:41:46.605Z,12
2023-12-28T08:42:46.637Z,12
2023-12-28T08:44:48.888Z,9
2023-12-28T08:45:46.663Z,9
2023-12-28T08:46:46.600Z,10
2023-12-28T08:47:46.636Z,9
2023-12-28T08:48:46.733Z,9
2023-12-28T08:49:46.685Z,9
2023-12-28T08:50:46.602Z,7
2023-12-28T08:51:46.682Z,9
2023-12-28T08:53:46.610Z,6
2023-12-28T08:54:46.688Z,8
2023-12-28T08:55:46.653Z,9
2023-12-28T08:57:46.622Z,12
2023-12-28T08:58:46.597Z,12
2023-12-28T08:59:46.603Z,10
2023-12-28T09:00:46.802Z,9
2023-12-28T09:01:46.700Z,7
2023-12-28T09:02:46.647Z,9
2023-12-28T09:03:46.705Z,9
2023-12-28T09:04:46.605Z,11
2023-12-28T09:05:46.643Z,12
2023-12-28T09:06:46.725Z,7
2023-12-28T09:07:46.597Z,9
2023-12-28T09:08:46.597Z,9
2023-12-28T09:09:46.643Z,10
2023-12-28T09:10:46.610Z,10
2023-12-28T09:11:46.639Z,10
2023-12-28T09:12:46.682Z,14
2023-12-28T09:13:46.615Z,14
2023-12-28T09:15:46.639Z,12
2023-12-28T09:16:46.595Z,12
2023-12-28T09:17:46.725Z,10
2023-12-28T09:18:46.749Z,12
2023-12-28T09:19:46.729Z,8
2023-12-28T09:20:46.605Z,13
2023-12-28T09:22:46.602Z,6
2023-12-28T09:23:46.595Z,11
2023-12-28T09:24:46.658Z,9
2023-12-28T09:25:46.596Z,11
2023-12-28T09:27:46.656Z,10
2023-12-28T09:28:46.605Z,9
2023-12-28T09:29:46.602Z,8
2023-12-28T09:30:46.705Z,8
2023-12-28T09:32:46.602Z,11
2023-12-28T09:33:46.657Z,12
2023-12-28T09:34:46.606Z,12
2023-12-28T09:35:48.804Z,11
2023-12-28T09:36:46.589Z,13
2023-12-28T09:37:46.597Z,13
2023-12-28T09:39:46.721Z,12
2023-12-28T09:40:46.598Z,7
2023-12-28T09:41:46.601Z,7
2023-12-28T09:42:46.620Z,10
2023-12-28T09:43:46.601Z,10
2023-12-28T09:44:46.603Z,11
2023-12-28T09:45:46.624Z,11
2023-12-28T09:46:46.601Z,8
2023-12-28T09:47:46.669Z,8
2023-12-28T09:48:46.731Z,9
2023-12-28T09:49:46.748Z,12
2023-12-28T09:50:46.595Z,15
2023-12-28T09:51:46.680Z,14
2023-12-28T09:54:46.693Z,8
2023-12-28T09:56:46.662Z,16
2023-12-28T09:57:46.670Z,16
2023-12-28T09:58:46.610Z,10
2023-12-28T09:59:46.603Z,13
2023-12-28T10:01:46.691Z,15
2023-12-28T10:03:46.653Z,13
2023-12-28T10:04:46.676Z,15
2023-12-28T10:05:46.736Z,11
2023-12-28T10:06:46.660Z,15
2023-12-28T10:07:50.552Z,13
2023-12-28T10:08:46.615Z,15
2023-12-28T10:11:46.592Z,13
2023-12-28T10:12:46.634Z,9
2023-12-28T10:13:46.632Z,13
2023-12-28T10:15:46.654Z,12
2023-12-28T10:16:46.597Z,15
2023-12-28T10:17:46.735Z,13
2023-12-28T10:18:46.780Z,15
2023-12-28T10:19:49.108Z,15
2023-12-28T10:21:46.623Z,15
2023-12-28T10:22:46.601Z,12
2023-12-28T10:23:46.612Z,13
2023-12-28T10:24:46.738Z,11
2023-12-28T10:25:46.672Z,13
2023-12-28T10:26:46.595Z,13
2023-12-28T10:27:46.645Z,13
2023-12-28T10:28:46.607Z,11
2023-12-28T10:29:46.620Z,12
2023-12-28T10:30:46.720Z,12
2023-12-28T10:31:46.822Z,12
2023-12-28T10:32:46.829Z,13
2023-12-28T10:33:46.974Z,13
2023-12-28T10:34:46.661Z,13
2023-12-28T10:35:46.609Z,18
2023-12-28T10:36:46.620Z,12
2023-12-28T10:37:46.609Z,11
2023-12-28T10:38:46.596Z,13
2023-12-28T10:39:46.637Z,13
2023-12-28T10:40:46.594Z,13
2023-12-28T10:41:46.601Z,11
2023-12-28T10:42:46.688Z,12
2023-12-28T10:43:46.619Z,12
2023-12-28T10:45:46.629Z,9
2023-12-28T10:46:46.605Z,14
2023-12-28T10:47:46.688Z,13
2023-12-28T10:48:46.667Z,14
2023-12-28T10:49:46.728Z,14
2023-12-28T10:51:46.661Z,10
2023-12-28T10:52:46.644Z,12
2023-12-28T10:53:46.609Z,12
2023-12-28T10:54:46.639Z,12
2023-12-28T10:56:46.604Z,10
2023-12-28T10:57:46.699Z,12
2023-12-28T10:58:46.618Z,12
2023-12-28T10:59:46.615Z,12
2023-12-28T11:00:46.702Z,12
2023-12-28T11:02:46.741Z,10
2023-12-28T11:03:46.714Z,10
2023-12-28T11:04:46.646Z,10
2023-12-28T11:06:46.629Z,15
2023-12-28T11:07:46.613Z,11
2023-12-28T11:08:46.610Z,11
2023-12-28T11:09:46.728Z,14
2023-12-28T11:10:46.602Z,11
2023-12-28T11:11:46.612Z,10
2023-12-28T11:13:46.614Z,14
2023-12-28T11:14:46.615Z,12
2023-12-28T11:15:46.641Z,11
2023-12-28T11:17:46.720Z,11
2023-12-28T11:18:46.747Z,13
2023-12-28T11:19:46.621Z,13
2023-12-28T11:20:46.622Z,12
2023-12-28T11:21:46.660Z,11
2023-12-28T11:22:46.608Z,12
2023-12-28T11:24:48.100Z,9
2023-12-28T11:25:46.619Z,13
2023-12-28T11:26:46.618Z,9
2023-12-28T11:29:46.603Z,9
2023-12-28T11:30:46.728Z,6
2023-12-28T11:31:46.699Z,10
2023-12-28T11:34:46.805Z,11
2023-12-28T11:35:46.612Z,13
2023-12-28T11:37:46.621Z,11
2023-12-28T11:39:46.662Z,12
2023-12-28T11:40:46.629Z,9
2023-12-28T11:41:46.616Z,12
2023-12-28T11:42:46.725Z,12
2023-12-28T11:44:46.616Z,11
2023-12-28T11:46:46.624Z,8
2023-12-28T11:47:46.714Z,13
2023-12-28T11:49:46.674Z,8
2023-12-28T11:50:46.629Z,14
2023-12-28T11:51:46.665Z,14
2023-12-28T11:52:46.670Z,11
2023-12-28T11:53:46.608Z,11
2023-12-28T11:54:46.657Z,14
2023-12-28T11:55:46.609Z,11
2023-12-28T11:56:46.621Z,14
2023-12-28T11:58:46.620Z,12
2023-12-28T11:59:46.649Z,13
2023-12-28T12:00:46.843Z,9
2023-12-28T12:01:46.711Z,9
2023-12-28T12:02:46.605Z,10
2023-12-28T12:03:46.657Z,13
2023-12-28T12:04:46.734Z,11
2023-12-28T12:05:46.669Z,11
2023-12-28T12:07:46.611Z,10
2023-12-28T12:08:46.621Z,13
2023-12-28T12:09:46.729Z,12
2023-12-28T12:10:46.620Z,12
2023-12-28T12:11:46.624Z,14
2023-12-28T12:13:46.620Z,9
2023-12-28T12:14:46.641Z,10
2023-12-28T12:15:46.651Z,9
2023-12-28T12:16:46.629Z,9
2023-12-28T12:17:46.660Z,10
2023-12-28T12:18:46.700Z,11
2023-12-28T12:19:46.719Z,12
2023-12-28T12:20:46.616Z,12
2023-12-28T12:21:47.217Z,11
2023-12-28T12:22:46.627Z,11
2023-12-28T12:23:46.629Z,15
2023-12-28T12:24:47.034Z,11
2023-12-28T12:25:46.651Z,9
2023-12-28T12:26:46.625Z,11
2023-12-28T12:27:46.668Z,11
2023-12-28T12:29:46.633Z,14
2023-12-28T12:30:46.723Z,11
2023-12-28T12:31:46.710Z,11
2023-12-28T12:32:46.726Z,13
2023-12-28T12:33:49.156Z,10
2023-12-28T12:34:46.684Z,14
2023-12-28T12:36:46.712Z,10
2023-12-28T12:37:46.633Z,10
2023-12-28T12:38:46.645Z,13
2023-12-28T12:39:46.696Z,8
2023-12-28T12:40:46.633Z,11
2023-12-28T12:42:46.671Z,10
2023-12-28T12:43:46.686Z,13
2023-12-28T12:44:46.635Z,13
2023-12-28T12:45:48.681Z,10
2023-12-28T12:47:47.083Z,9
2023-12-28T12:49:46.702Z,6
2023-12-28T12:50:46.630Z,6
2023-12-28T12:51:46.758Z,16
2023-12-28T12:52:46.633Z,9
2023-12-28T12:53:46.665Z,10
2023-12-28T12:54:46.661Z,10
2023-12-28T12:55:46.638Z,15
2023-12-28T12:57:46.641Z,15
2023-12-28T12:58:46.642Z,14
2023-12-28T13:00:46.750Z,14
2023-12-28T13:02:46.637Z,8
2023-12-28T13:03:48.474Z,11
2023-12-28T13:04:46.690Z,11
2023-12-28T13:07:46.635Z,10
2023-12-28T13:08:46.727Z,13
2023-12-28T13:09:46.669Z,13
2023-12-28T13:11:46.625Z,14
2023-12-28T13:12:46.683Z,9
2023-12-28T13:13:46.630Z,15
2023-12-28T13:14:46.644Z,9
2023-12-28T13:17:46.659Z,14
2023-12-28T13:18:46.753Z,11
2023-12-28T13:19:46.758Z,10
2023-12-28T13:20:46.632Z,10
2023-12-28T13:22:46.625Z,13
2023-12-28T13:23:46.631Z,10
2023-12-28T13:24:46.660Z,10
2023-12-28T13:25:46.638Z,14
2023-12-28T13:26:46.653Z,12
2023-12-28T13:28:46.642Z,11
2023-12-28T13:29:46.639Z,12
2023-12-28T13:30:46.728Z,10
2023-12-28T13:31:46.684Z,11
2023-12-28T13:32:46.776Z,13
2023-12-28T13:33:46.693Z,13
2023-12-28T13:34:46.680Z,13
2023-12-28T13:36:46.670Z,9
2023-12-28T13:37:46.649Z,14
2023-12-28T13:39:46.668Z,12
2023-12-28T13:40:46.643Z,12
2023-12-28T13:41:47.013Z,10
2023-12-28T13:43:46.660Z,13
2023-12-28T13:44:46.695Z,10
2023-12-28T13:45:46.673Z,10
2023-12-28T13:46:46.629Z,13
2023-12-28T13:47:46.674Z,11
2023-12-28T13:48:46.772Z,12
2023-12-28T13:49:46.700Z,9
2023-12-28T13:51:46.645Z,9
2023-12-28T13:52:46.638Z,9
2023-12-28T13:53:46.630Z,12
2023-12-28T13:54:46.693Z,13
2023-12-28T13:55:46.650Z,13
2023-12-28T13:56:46.652Z,11
2023-12-28T13:57:46.666Z,10
2023-12-28T13:58:46.643Z,10
2023-12-28T13:59:46.694Z,11
2023-12-28T14:00:46.747Z,11
2023-12-28T14:01:46.673Z,10
2023-12-28T14:03:46.844Z,10
2023-12-28T14:04:46.728Z,14
2023-12-28T14:05:46.788Z,9
2023-12-28T14:06:46.713Z,8
2023-12-28T14:07:46.639Z,10
2023-12-28T14:09:46.691Z,9
2023-12-28T14:10:46.639Z,12
2023-12-28T14:11:46.636Z,9
2023-12-28T14:12:46.691Z,11
2023-12-28T14:13:46.653Z,11
2023-12-28T14:14:46.675Z,12
2023-12-28T14:15:47.035Z,13
2023-12-28T14:16:47.352Z,9
2023-12-28T14:18:46.688Z,15
2023-12-28T14:19:46.788Z,14
2023-12-28T14:20:46.656Z,14
2023-12-28T14:21:46.673Z,12
2023-12-28T14:22:46.639Z,13
2023-12-28T14:23:46.633Z,10
2023-12-28T14:24:46.712Z,13
2023-12-28T14:26:46.633Z,9
2023-12-28T14:27:46.665Z,9
2023-12-28T14:28:46.629Z,9
2023-12-28T14:29:46.634Z,9
2023-12-28T14:30:46.710Z,9
2023-12-28T14:31:46.658Z,9
2023-12-28T14:32:46.714Z,9
2023-12-28T14:34:46.668Z,12
2023-12-28T14:35:48.381Z,13
2023-12-28T14:36:46.729Z,13
2023-12-28T14:38:46.644Z,7
2023-12-28T14:39:46.672Z,12
2023-12-28T14:40:46.639Z,8
2023-12-28T14:42:46.764Z,8
2023-12-28T14:44:46.651Z,14
2023-12-28T14:46:47.051Z,13
2023-12-28T14:47:46.674Z,13
2023-12-28T14:49:46.873Z,9
2023-12-28T14:50:46.636Z,9
2023-12-28T14:51:46.690Z,9
2023-12-28T14:52:46.647Z,9
2023-12-28T14:54:46.695Z,10
2023-12-28T14:55:46.652Z,9
2023-12-28T14:56:54.479Z,9
2023-12-28T14:57:46.725Z,8
2023-12-28T14:58:48.137Z,13
2023-12-28T15:00:46.687Z,8
2023-12-28T15:01:46.698Z,9
2023-12-28T15:02:46.645Z,9
2023-12-28T15:03:46.692Z,9
2023-12-28T15:04:46.868Z,7
2023-12-28T15:05:46.657Z,11
2023-12-28T15:06:46.738Z,11
2023-12-28T15:07:46.648Z,11
2023-12-28T15:08:46.645Z,10
2023-12-28T15:09:46.712Z,11
2023-12-28T15:10:48.515Z,11
2023-12-28T15:11:49.086Z,16
2023-12-28T15:12:46.736Z,11
2023-12-28T15:13:46.638Z,11
2023-12-28T15:14:46.642Z,12
2023-12-28T15:15:46.651Z,9
2023-12-28T15:16:46.735Z,10
2023-12-28T15:17:46.693Z,10
2023-12-28T15:19:46.784Z,8
2023-12-28T15:20:46.646Z,11
2023-12-28T15:21:46.867Z,11
2023-12-28T15:22:46.659Z,10
2023-12-28T15:25:46.650Z,12
2023-12-28T15:26:46.646Z,13
2023-12-28T15:27:46.709Z,7
2023-12-28T15:29:46.638Z,11
2023-12-28T15:30:46.750Z,6
2023-12-28T15:31:46.789Z,9
2023-12-28T15:32:46.706Z,9
2023-12-28T15:33:46.826Z,7
2023-12-28T15:35:46.653Z,7
2023-12-28T15:36:46.673Z,7
2023-12-28T15:37:46.653Z,11
2023-12-28T15:38:46.668Z,11
2023-12-28T15:40:46.646Z,8
2023-12-28T15:41:46.642Z,7
2023-12-28T15:42:49.323Z,9
2023-12-28T15:43:46.649Z,8
2023-12-28T15:44:46.641Z,8
2023-12-28T15:45:46.802Z,12
2023-12-28T15:46:46.676Z,12
2023-12-28T15:47:46.741Z,13
2023-12-28T15:48:47.002Z,9
2023-12-28T15:49:46.750Z,10
2023-12-28T15:50:46.653Z,11
2023-12-28T15:52:46.642Z,10
2023-12-28T15:53:46.662Z,10
2023-12-28T15:54:46.710Z,9
2023-12-28T15:55:46.649Z,9
2023-12-28T15:57:46.682Z,7
2023-12-28T15:59:46.646Z,12
2023-12-28T16:00:46.756Z,13
2023-12-28T16:01:46.706Z,5
2023-12-28T16:02:46.725Z,8
2023-12-28T16:03:46.677Z,8
2023-12-28T16:04:46.686Z,12
2023-12-28T16:05:46.680Z,12
2023-12-28T16:06:46.669Z,9
2023-12-28T16:07:46.656Z,9
2023-12-28T16:08:46.674Z,12
2023-12-28T16:10:46.647Z,9
2023-12-28T16:11:46.701Z,10
2023-12-28T16:12:46.700Z,10
2023-12-28T16:13:46.654Z,7
2023-12-28T16:14:46.648Z,7
2023-12-28T16:15:46.664Z,10
2023-12-28T16:16:46.706Z,11
2023-12-28T16:17:46.692Z,9
2023-12-28T16:18:46.799Z,9
2023-12-28T16:19:46.708Z,10
2023-12-28T16:20:46.662Z,11
2023-12-28T16:21:46.746Z,8
2023-12-28T16:22:46.650Z,8
2023-12-28T16:23:46.653Z,14
2023-12-28T16:24:47.114Z,9
2023-12-28T16:26:46.659Z,5
2023-12-28T16:27:46.672Z,5
2023-12-28T16:28:46.658Z,8
2023-12-28T16:29:46.648Z,8
2023-12-28T16:30:46.723Z,13
2023-12-28T16:31:46.679Z,11
2023-12-28T16:32:46.736Z,11
2023-12-28T16:34:46.706Z,9
2023-12-28T16:35:46.658Z,18
2023-12-28T16:36:46.723Z,11
2023-12-28T16:37:46.664Z,11
2023-12-28T16:38:46.656Z,10
2023-12-28T16:39:46.689Z,10
2023-12-28T16:40:46.651Z,12
2023-12-28T16:41:46.661Z,7
2023-12-28T16:43:46.726Z,11
2023-12-28T16:44:46.659Z,11
2023-12-28T16:45:46.707Z,12
2023-12-28T16:46:46.686Z,14
2023-12-28T16:47:46.723Z,9
2023-12-28T16:48:46.796Z,9
2023-12-28T16:49:46.735Z,10
2023-12-28T16:50:46.663Z,10
2023-12-28T16:51:46.731Z,11
2023-12-28T16:52:46.671Z,11
2023-12-28T16:53:46.660Z,8
2023-12-28T16:54:46.722Z,13
2023-12-28T16:55:46.726Z,12
2023-12-28T16:56:46.686Z,12
2023-12-28T16:58:46.672Z,12
2023-12-28T16:59:55.770Z,8
2023-12-28T17:00:46.740Z,6
2023-12-28T17:01:46.812Z,10
2023-12-28T17:02:46.714Z,10
2023-12-28T17:04:46.749Z,11
2023-12-28T17:05:46.689Z,8
2023-12-28T17:06:46.686Z,8
2023-12-28T17:07:46.668Z,8
2023-12-28T17:09:46.761Z,10
2023-12-28T17:10:46.668Z,5
2023-12-28T17:11:46.676Z,5
2023-12-28T17:12:46.696Z,9
2023-12-28T17:14:46.666Z,10
2023-12-28T17:16:46.661Z,6
2023-12-28T17:17:46.743Z,8
2023-12-28T17:18:46.769Z,8